Data for 11/02/2006

Time Sea-Level Adjusted Pressure Absolute Pressure Temperature Relative Humidity Dew Point   
(mb) (inHg) (mb) (inHg) (C) (F) (%) (C) (F)
00:05 1021 30.15 851 25.13 -6.6 20.1 65 -12.1 10.1
00:10 1021 30.15 850 25.1 -6.6 20.1 65 -12.1 10.3
00:15 1021 30.15 850 25.1 -6.7 20 64 -12.4 9.7
00:20 1021 30.15 850 25.1 -6.4 20.4 64 -12.2 10
00:25 1021 30.15 850 25.1 -6.3 20.7 62 -12.5 9.6
00:30 1021 30.15 850 25.1 -5.3 22.4 58 -12.4 9.7
00:35 1021 30.15 850 25.1 -5.2 22.7 59 -12.1 10.3
00:40 1021 30.15 850 25.1 -5.6 21.9 60 -12.1 10.1
00:45 1021 30.15 850 25.1 -6.2 20.9 64 -11.9 10.5
00:50 1021 30.15 850 25.1 -6.2 20.8 62 -12.3 9.8
00:55 1021 30.15 850 25.1 -6.4 20.5 65 -11.9 10.6
01:00 1021 30.15 850 25.1 -6 21.1 64 -11.8 10.8
01:05 1021 30.15 850 25.1 -5.8 21.6 63 -11.7 11
01:10 1021 30.15 850 25.1 -5.4 22.3 58 -12.4 9.6
01:15 1021 30.15 850 25.1 -4.7 23.6 56 -12.2 10.1
01:20 1021 30.15 850 25.1 -4.7 23.5 56 -12.2 10
01:25 1021 30.15 850 25.1 -4.8 23.3 58 -11.8 10.8
01:30 1021 30.15 850 25.1 -4.9 23.3 57 -12.2 10
01:35 1021 30.15 850 25.1 -5.1 22.8 61 -11.5 11.4
01:40 1021 30.15 850 25.1 -5.4 22.3 60 -11.9 10.6
01:45 1021 30.15 850 25.1 -5.1 22.9 58 -12.1 10.3
01:50 1021 30.15 850 25.1 -5.4 22.4 60 -12 10.5
01:55 1021 30.15 850 25.1 -6 21.1 63 -12.1 10.3
02:00 1021 30.15 850 25.1 -6 21.2 61 -12.4 9.6
02:05 1021 30.15 850 25.1 -5.5 22 60 -12.2 10.1
02:10 1021 30.15 850 25.1 -5.4 22.3 59 -12.3 9.9
02:15 1021 30.15 850 25.1 -5.4 22.3 59 -12.2 10
02:20 1021 30.15 850 25.1 -5.3 22.5 58 -12.3 9.9
02:25 1021 30.15 850 25.1 -5.3 22.4 58 -12.2 10
02:30 1021 30.15 850 25.1 -5.3 22.5 58 -12.2 10
02:35 1021 30.15 850 25.1 -5.4 22.3 61 -11.8 10.8
02:40 1021 30.15 850 25.1 -6.4 20.5 66 -11.7 11
02:45 1021 30.15 850 25.1 -6.7 19.9 65 -12.3 9.9
02:50 1021 30.15 850 25.1 -6.6 20.1 65 -12.1 10.3
02:55 1021 30.15 850 25.1 -6.7 20 65 -12.2 10
03:00 1021 30.15 850 25.1 -6.5 20.3 66 -11.9 10.6
03:05 1021 30.15 850 25.1 -6.2 20.8 63 -12.3 9.9
03:10 1021 30.15 850 25.1 -5.8 21.6 62 -11.9 10.6
03:15 1021 30.15 850 25.1 -5.6 21.9 59 -12.4 9.7
03:20 1021 30.15 850 25.1 -5.7 21.7 61 -12.1 10.2
03:25 1021 30.15 850 25.1 -5.9 21.4 60 -12.6 9.4
03:30 1021 30.15 850 25.1 -5.8 21.7 60 -12.3 9.9
03:35 1021 30.15 850 25.1 -6.1 21 65 -11.7 10.9
03:40 1021 30.15 850 25.1 -7.1 19.3 71 -11.4 11.4
03:45 1021 30.15 850 25.1 -7.1 19.2 72 -11.3 11.6
03:50 1021 30.15 850 25.1 -7 19.5 72 -11.2 11.8
03:55 1021 30.15 850 25.1 -7.1 19.3 72 -11.2 11.8
04:00 1021 30.15 850 25.1 -6.6 20.1 71 -11 12.2
04:05 1021 30.15 850 25.1 -6.6 20.1 71 -11.1 12
04:10 1021 30.15 850 25.1 -7.2 19.1 73 -11.2 11.8
04:15 1021 30.15 850 25.1 -7.4 18.7 75 -11.1 12
04:20 1021 30.15 850 25.1 -6.7 19.9 72 -10.9 12.3
04:25 1021 30.15 850 25.1 -7 19.4 73 -11 12.2
04:30 1021 30.15 850 25.1 -7.2 19.1 74 -11.1 12.1
04:35 1021 30.15 850 25.1 -7.6 18.4 74 -11.4 11.5
04:40 1021 30.15 850 25.1 -7.4 18.8 72 -11.6 11.2
04:45 1021 30.15 850 25.1 -7.8 18 73 -11.9 10.6
04:50 1021 30.15 850 25.1 -7.2 19 65 -12.8 9
04:55 1021 30.15 850 25.1 -7.1 19.3 64 -12.7 9.1
05:00 1021 30.15 850 25.1 -7 19.5 62 -13.1 8.5
05:05 1020 30.12 850 25.1 -6.8 19.8 63 -12.7 9.1
05:10 1021 30.15 850 25.1 -7.3 18.9 67 -12.5 9.6
05:15 1021 30.15 850 25.1 -7.6 18.3 66 -12.9 8.9
05:20 1020 30.12 850 25.1 -7.3 18.8 69 -12.2 10.1
05:25 1020 30.12 849 25.07 -6.9 19.6 63 -12.8 8.9
05:30 1020 30.12 849 25.07 -7.1 19.2 64 -12.8 9
05:35 1020 30.12 849 25.07 -7.7 18.2 65 -13.3 8.1
05:40 1020 30.12 849 25.07 -6.6 20.1 61 -12.9 8.8
05:45 1020 30.12 849 25.07 -6.6 20.1 60 -13.2 8.3
05:50 1020 30.12 849 25.07 -5.9 21.4 56 -13.4 7.9
05:55 1020 30.12 849 25.07 -6.1 21.1 58 -12.9 8.7
06:00 1020 30.12 849 25.07 -6.7 19.9 61 -13 8.6
06:05 1020 30.12 849 25.07 -7.1 19.1 62 -13.2 8.3
06:10 1020 30.12 849 25.07 -6.8 19.8 61 -13 8.6
06:15 1020 30.12 849 25.07 -6.5 20.3 61 -12.9 8.8
06:20 1020 30.12 849 25.07 -6 21.1 57 -13.1 8.3
06:25 1020 30.12 849 25.07 -5.6 22 56 -13 8.6
06:30 1020 30.12 849 25.07 -5.3 22.4 56 -12.8 8.9
06:35 1020 30.12 849 25.07 -5.2 22.7 55 -12.8 9
06:40 1020 30.12 849 25.07 -5.4 22.2 53 -13.6 7.4
06:45 1020 30.12 849 25.07 -5.6 21.9 53 -13.7 7.3
06:50 1020 30.12 849 25.07 -5.7 21.8 55 -13.3 8
06:55 1020 30.12 849 25.07 -6 21.2 56 -13.3 8
07:00 1020 30.12 849 25.07 -6.6 20.1 58 -13.7 7.4
07:05 1020 30.12 849 25.07 -6.8 19.8 59 -13.6 7.6
07:10 1020 30.12 849 25.07 -6.5 20.3 57 -13.8 7.2
07:15 1020 30.12 849 25.07 -6.3 20.7 58 -13.3 8
07:20 1020 30.12 849 25.07 -6.5 20.2 58 -13.6 7.6
07:25 1020 30.12 849 25.07 -6.5 20.3 59 -13.1 8.4
07:30 1020 30.12 849 25.07 -6.8 19.7 60 -13.3 8
07:35 1020 30.12 849 25.07 -6.1 20.9 56 -13.6 7.6
07:40 1020 30.12 849 25.07 -5.4 22.3 54 -13.3 8.1
07:45 1020 30.12 849 25.07 -4.6 23.7 51 -13.3 8
07:50 1020 30.12 850 25.1 -4.3 24.3 51 -13 8.7
07:55 1020 30.12 850 25.1 -4.2 24.5 52 -12.6 9.3
08:00 1020 30.12 850 25.1 -4.2 24.5 54 -12.1 10.2
08:05 1020 30.12 849 25.07 -4.3 24.3 55 -12 10.4
08:10 1020 30.12 850 25.1 -4.9 23.2 56 -12.4 9.7
08:15 1020 30.12 850 25.1 -5 23 61 -11.5 11.3
08:20 1020 30.12 850 25.1 -5.4 22.2 58 -12.4 9.6
08:25 1020 30.12 850 25.1 -5.7 21.8 57 -13 8.6
08:30 1020 30.12 850 25.1 -5.3 22.4 55 -13.1 8.5
08:35 1020 30.12 850 25.1 -5 23.1 52 -13.5 7.7
08:40 1020 30.12 850 25.1 -4.4 24.2 51 -13.1 8.4
08:45 1020 30.12 850 25.1 -3.9 25 48 -13.3 8.1
08:50 1020 30.12 850 25.1 -3.6 25.4 49 -12.8 9
08:55 1020 30.12 849 25.07 -3.4 25.9 49 -12.6 9.3
09:00 1020 30.12 849 25.07 -3.3 26.1 51 -12 10.5
09:05 1020 30.12 849 25.07 -3.4 25.9 52 -12 10.4
09:10 1020 30.12 849 25.07 -3.8 25.2 53 -12.1 10.2
09:15 1020 30.12 849 25.07 -4 24.9 56 -11.4 11.5
09:20 1020 30.12 849 25.07 -3.6 25.5 53 -11.7 10.9
09:25 1020 30.12 849 25.07 -3.1 26.5 52 -11.7 11
09:30 1020 30.12 849 25.07 -2.4 27.6 48 -12 10.4
09:35 1020 30.12 849 25.07 -1.6 29.2 45 -12 10.5
09:40 1020 30.12 849 25.07 -0.1 31.9 41 -11.7 10.9
09:45 1020 30.12 849 25.07 0.7 33.3 39 -11.9 10.6
09:50 1020 30.12 849 25.07 0.3 32.5 44 -10.8 12.6
09:55 1020 30.12 849 25.07 0.3 32.5 44 -10.7 12.8
10:00 1020 30.12 850 25.1 1.2 34.1 42 -10.3 13.5
10:05 1020 30.12 849 25.07 1.5 34.7 41 -10.4 13.3
10:10 1020 30.12 849 25.07 0.5 33 50 -8.8 16.2
10:15 1020 30.12 849 25.07 -0.7 30.7 51 -9.5 14.8
10:20 1020 30.12 849 25.07 -1.5 29.3 56 -9.2 15.5
10:25 1020 30.12 849 25.07 -1.5 29.3 57 -9 15.8
10:30 1020 30.12 849 25.07 -0.8 30.6 52 -9.5 14.9
10:35 1020 30.12 849 25.07 -0.1 31.9 50 -9.2 15.5
10:40 1020 30.12 849 25.07 0.3 32.6 49 -9.2 15.4
10:45 1020 30.12 849 25.07 0.7 33.2 45 -9.9 14.2
10:50 1020 30.12 849 25.07 1.2 34.2 43 -10.2 13.7
10:55 1020 30.12 849 25.07 1.7 35.1 43 -9.6 14.7
11:00 1020 30.12 849 25.07 2.5 36.5 43 -8.9 16
11:05 1020 30.12 849 25.07 2.6 36.6 47 -7.6 18.4
11:10 1020 30.12 849 25.07 2 35.7 46 -8.4 16.9
11:15 1020 30.12 849 25.07 2.2 35.9 45 -8.5 16.7
11:20 1020 30.12 849 25.07 2.9 37.3 42 -8.9 16
11:25 1019 30.09 849 25.07 3.6 38.4 39 -9 15.7
11:30 1019 30.09 849 25.07 3.5 38.2 39 -9.2 15.5
11:35 1019 30.09 848 25.04 2.6 36.6 44 -8.5 16.8
11:40 1019 30.09 848 25.04 2.5 36.6 42 -9.1 15.7
11:45 1019 30.09 848 25.04 2.9 37.2 36 -10.9 12.4
11:50 1019 30.09 848 25.04 1.6 34.8 41 -10.2 13.6
11:55 1019 30.09 848 25.04 1.9 35.4 38 -11 12.2
12:00 1019 30.09 848 25.04 2.8 37 35 -11.1 11.9
12:05 1019 30.09 848 25.04 3.7 38.7 32 -11.4 11.5
12:10 1019 30.09 848 25.04 4.4 39.9 30 -11.6 11.1
12:15 1019 30.09 848 25.04 5 40.9 29 -11.5 11.3
12:20 1019 30.09 848 25.04 5.2 41.4 32 -10.4 13.4
12:25 1019 30.09 848 25.04 5 41 34 -9.7 14.5
12:30 1019 30.09 848 25.04 4.2 39.6 35 -10.1 13.9
12:35 1018 30.06 848 25.04 3.7 38.7 32 -11.3 11.6
12:40 1018 30.06 848 25.04 3.2 37.8 34 -11.1 12
12:45 1018 30.06 847 25.01 4 39.3 32 -11.4 11.5
12:50 1018 30.06 847 25.01 4.1 39.4 31 -11.7 11
12:55 1018 30.06 847 25.01 4.6 40.3 30 -11.4 11.5
13:00 1018 30.06 847 25.01 5.2 41.4 31 -10.7 12.8
13:05 1018 30.06 847 25.01 5.6 42.1 28 -11.4 11.6
13:10 1018 30.06 847 25.01 6.1 42.9 26 -12 10.4
13:15 1018 30.06 847 25.01 6.9 44.5 27 -10.6 12.9
13:20 1018 30.06 847 25.01 6.3 43.3 28 -10.8 12.5
13:25 1018 30.06 847 25.01 5.4 41.8 28 -11.8 10.8
13:30 1018 30.06 847 25.01 4.7 40.5 28 -12.1 10.2
13:35 1018 30.06 847 25.01 4.1 39.4 29 -12.4 9.8
13:40 1017 30.03 847 25.01 4.2 39.5 29 -12.6 9.4
13:45 1017 30.03 847 25.01 4.6 40.4 28 -12.2 10.1
13:50 1017 30.03 846 24.98 5.1 41.1 28 -12 10.3
13:55 1017 30.03 846 24.98 5.2 41.4 28 -12 10.3
14:00 1017 30.03 846 24.98 4.9 40.8 29 -11.8 10.8
14:05 1017 30.03 846 24.98 5.1 41.2 28 -11.8 10.7
14:10 1017 30.03 846 24.98 5 41 30 -11 12.1
14:15 1017 30.03 846 24.98 6.1 42.9 28 -11.4 11.6
14:20 1017 30.03 846 24.98 6.7 44.1 28 -10.6 12.9
14:25 1017 30.03 846 24.98 7.1 44.8 28 -10.4 13.3
14:30 1017 30.03 846 24.98 7.5 45.5 27 -10.4 13.3
14:35 1017 30.03 846 24.98 6.9 44.5 29 -9.9 14.2
14:40 1017 30.03 846 24.98 6.5 43.7 29 -10.3 13.4
14:45 1017 30.03 846 24.98 6.1 43 30 -10.1 13.9
14:50 1017 30.03 846 24.98 6.8 44.2 29 -10.2 13.7
14:55 1017 30.03 846 24.98 6.9 44.4 30 -9.7 14.5
15:00 1017 30.03 846 24.98 7 44.7 28 -10.1 13.8
15:05 1017 30.03 846 24.98 6.7 44.1 30 -9.6 14.8
15:10 1017 30.03 846 24.98 6 42.8 31 -9.9 14.2
15:15 1017 30.03 846 24.98 5.6 42 33 -9.4 15
15:20 1017 30.03 846 24.98 5.2 41.4 33 -9.8 14.4
15:25 1017 30.03 846 24.98 5.1 41.2 33 -9.9 14.1
15:30 1017 30.03 846 24.98 5.4 41.7 27 -12.4 9.6
15:35 1017 30.03 846 24.98 4.7 40.4 28 -12.5 9.5
15:40 1017 30.03 846 24.98 4 39.3 29 -12.3 9.8
15:45 1017 30.03 846 24.98 3.9 39.1 31 -11.5 11.2
15:50 1017 30.03 846 24.98 4 39.2 30 -11.9 10.5
15:55 1017 30.03 846 24.98 4.1 39.4 34 -10.4 13.3
16:00 1017 30.03 846 24.98 4.2 39.5 32 -11 12.3
16:05 1017 30.03 846 24.98 4.2 39.5 35 -10.1 13.8
16:10 1017 30.03 846 24.98 4 39.2 34 -10.4 13.2
16:15 1016 30 846 24.98 3.5 38.3 35 -10.4 13.2
16:20 1016 30 846 24.98 3.2 37.8 39 -9.3 15.3
16:25 1016 30 846 24.98 3.2 37.7 41 -9 15.8
16:30 1016 30 845 24.95 3.2 37.7 40 -9.1 15.7
16:35 1016 30 845 24.95 3.1 37.6 42 -8.6 16.5
16:40 1016 30 845 24.95 2.9 37.3 42 -8.7 16.3
16:45 1016 30 845 24.95 2.9 37.2 43 -8.5 16.6
16:50 1016 30 845 24.95 2.9 37.3 40 -9.2 15.4
16:55 1016 30 845 24.95 2.9 37.3 42 -8.7 16.3
17:00 1016 30 845 24.95 2.9 37.3 43 -8.6 16.6
17:05 1016 30 845 24.95 3 37.4 42 -8.6 16.6
17:10 1016 30 845 24.95 3 37.4 43 -8.3 17.1
17:15 1016 30 845 24.95 2.9 37.2 45 -7.9 17.7
17:20 1016 30 845 24.95 2.9 37.2 47 -7.4 18.7
17:25 1016 30 845 24.95 2.7 36.9 50 -6.7 19.9
17:30 1016 30 845 24.95 2.6 36.7 51 -6.4 20.4
17:35 1016 30 845 24.95 2.7 36.8 54 -5.8 21.5
17:40 1016 30 845 24.95 2.7 36.9 52 -6.1 21
17:45 1016 30 845 24.95 2.8 37 50 -6.6 20.2
17:50 1016 30 845 24.95 2.9 37.2 50 -6.6 20.1
17:55 1016 30 845 24.95 3.1 37.5 51 -6.2 20.8
18:00 1016 30 845 24.95 2.9 37.3 54 -5.6 22
18:05 1016 30 845 24.95 2.8 37 55 -5.3 22.4
18:10 1016 30 845 24.95 2.7 36.9 55 -5.5 22.1
18:15 1016 30 845 24.95 3 37.3 50 -6.4 20.4
18:20 1016 30 845 24.95 3.3 38 54 -5.2 22.6
18:25 1016 30 845 24.95 3.4 38.1 53 -5.3 22.4
18:30 1016 30 845 24.95 3.4 38.1 54 -5.1 22.7
18:35 1016 30 845 24.95 3.4 38 54 -5 23
18:40 1016 30 845 24.95 3.5 38.3 51 -5.6 21.9
18:45 1015 29.97 845 24.95 3.7 38.6 52 -5.4 22.3
18:50 1015 29.97 845 24.95 3.7 38.7 50 -5.7 21.8
18:55 1016 30 845 24.95 4.1 39.3 47 -6.3 20.6
19:00 1015 29.97 845 24.95 4.5 40 47 -5.9 21.4
19:05 1015 29.97 845 24.95 4.4 39.9 48 -5.6 21.9
19:10 1015 29.97 845 24.95 4.2 39.5 50 -5.4 22.3
19:15 1016 30 845 24.95 4.2 39.5 48 -5.8 21.5
19:20 1016 30 845 24.95 4.3 39.7 48 -5.7 21.7
19:25 1016 30 845 24.95 4.4 39.8 47 -6.1 21.1
19:30 1016 30 845 24.95 4.5 40 48 -5.5 22
19:35 1015 29.97 845 24.95 4.5 40.2 45 -6.3 20.7
19:40 1015 29.97 845 24.95 4.7 40.4 46 -6 21.1
19:45 1015 29.97 845 24.95 4.7 40.5 45 -6.2 20.8
19:50 1015 29.97 845 24.95 4.8 40.6 45 -6.1 21
19:55 1015 29.97 844 24.92 4.8 40.7 45 -6 21.2
20:00 1015 29.97 844 24.92 4.9 40.7 45 -6.2 20.9
20:05 1015 29.97 844 24.92 4.9 40.9 44 -6.2 20.8
20:10 1015 29.97 844 24.92 5.1 41.2 44 -6.1 21
20:15 1015 29.97 844 24.92 5.1 41.2 44 -6.3 20.6
20:20 1015 29.97 844 24.92 5.1 41.2 44 -6.2 20.8
20:25 1015 29.97 844 24.92 4.9 40.9 46 -5.8 21.5
20:30 1015 29.97 844 24.92 4.9 40.8 46 -5.8 21.5
20:35 1015 29.97 844 24.92 5 41 45 -5.8 21.5
20:40 1015 29.97 844 24.92 5.1 41.1 46 -5.7 21.8
20:45 1015 29.97 844 24.92 4.9 40.8 48 -5.3 22.4
20:50 1015 29.97 844 24.92 4.8 40.7 47 -5.5 22.1
20:55 1015 29.97 844 24.92 4.9 40.9 47 -5.4 22.2
21:00 1015 29.97 844 24.92 4.9 40.9 46 -5.7 21.7
21:05 1015 29.97 844 24.92 5.1 41.2 46 -5.6 21.9
21:10 1015 29.97 844 24.92 5.1 41.1 46 -5.7 21.8
21:15 1015 29.97 844 24.92 5 41 50 -4.5 23.9
21:20 1015 29.97 844 24.92 4.8 40.6 48 -5.4 22.4
21:25 1015 29.97 844 24.92 5.2 41.4 46 -5.5 22.2
21:30 1015 29.97 844 24.92 5.3 41.6 49 -4.5 23.9
21:35 1015 29.97 844 24.92 5.2 41.3 55 -3 26.6
21:40 1015 29.97 844 24.92 4.7 40.4 56 -3.3 26.1
21:45 1015 29.97 844 24.92 4.8 40.6 53 -4 24.7
21:50 1015 29.97 844 24.92 5.4 41.8 50 -4.3 24.3
21:55 1015 29.97 844 24.92 5.3 41.5 59 -2.1 28.2
22:00 1015 29.97 844 24.92 4.6 40.3 59 -2.7 27.1
22:05 1015 29.97 844 24.92 5.1 41.2 52 -3.9 24.9
22:10 1015 29.97 844 24.92 5.4 41.7 56 -2.6 27.2
22:15 1015 29.97 844 24.92 5.5 41.9 55 -2.7 27.1
22:20 1015 29.97 844 24.92 5.7 42.3 48 -4.3 24.2
22:25 1015 29.97 844 24.92 5.7 42.2 55 -2.7 27.2
22:30 1015 29.97 844 24.92 5.6 42 56 -2.6 27.4
22:35 1015 29.97 844 24.92 5.4 41.7 61 -1.6 29.2
22:40 1015 29.97 844 24.92 5.2 41.3 58 -2.5 27.5
22:45 1015 29.97 844 24.92 5.1 41.2 60 -2 28.5
22:50 1015 29.97 844 24.92 4.7 40.5 55 -3.4 25.8
22:55 1015 29.97 844 24.92 5.9 42.6 48 -4.4 24.2
23:00 1015 29.97 844 24.92 6.3 43.3 51 -3.2 26.2
23:05 1015 29.97 844 24.92 5.9 42.7 54 -2.8 27
23:10 1015 29.97 844 24.92 5.5 41.9 53 -3.3 26.1
23:15 1015 29.97 844 24.92 5.4 41.7 54 -3.1 26.5
23:20 1015 29.97 844 24.92 5.3 41.5 54 -3.3 26.1
23:25 1015 29.97 844 24.92 5.1 41.1 57 -2.7 27.1
23:30 1015 29.97 844 24.92 4.9 40.7 59 -2.6 27.4
23:35 1015 29.97 844 24.92 4.7 40.4 59 -2.7 27.1
23:40 1015 29.97 844 24.92 4.7 40.5 60 -2.3 27.8
23:45 1015 29.97 844 24.92 4.7 40.5 57 -3 26.6
23:50 1015 29.97 844 24.92 5.1 41.1 56 -3.1 26.5
23:55 1015 29.97 844 24.92 5.1 41.2 57 -2.7 27.1
24:00 1015 29.97 844 24.92 5.1 41.1 56 -3 26.6